createdAt,value
2018-07-11T00:02:26.804Z,68.00
2018-07-11T00:04:54.959Z,68.10
2018-07-11T00:07:23.107Z,68.00
2018-07-11T00:09:51.282Z,68.00
2018-07-11T00:12:19.424Z,68.10
2018-07-11T00:14:47.583Z,68.30
2018-07-11T00:17:16.059Z,68.30
2018-07-11T00:19:44.498Z,68.30
2018-07-11T00:22:12.630Z,68.40
2018-07-11T00:24:40.810Z,68.50
2018-07-11T00:27:08.962Z,68.60
2018-07-11T00:29:37.098Z,69.50
2018-07-11T00:32:05.251Z,68.70
2018-07-11T00:34:33.389Z,68.80
2018-07-11T00:37:01.587Z,69.00
2018-07-11T00:39:30.154Z,69.10
2018-07-11T00:41:58.362Z,69.40
2018-07-11T00:44:26.513Z,69.50
2018-07-11T00:46:54.750Z,69.70
2018-07-11T00:49:22.905Z,69.80
2018-07-11T00:54:19.181Z,70.10
2018-07-11T00:56:47.347Z,70.20
2018-07-11T00:59:20.365Z,70.50
2018-07-11T01:01:48.548Z,70.70
2018-07-11T01:04:16.701Z,70.80
2018-07-11T01:06:44.860Z,70.90
2018-07-11T01:09:13.003Z,71.00
2018-07-11T01:11:41.165Z,71.00
2018-07-11T01:14:09.305Z,71.10
2018-07-11T01:16:37.469Z,71.00
2018-07-11T01:19:10.493Z,71.00
2018-07-11T01:21:38.883Z,70.90
2018-07-11T01:26:36.058Z,70.90
2018-07-11T01:29:04.514Z,70.80
2018-07-11T01:31:32.689Z,70.70
2018-07-11T01:34:00.948Z,70.60
2018-07-11T01:36:29.657Z,70.50
2018-07-11T01:38:58.657Z,70.40
2018-07-11T01:41:26.834Z,70.20
2018-07-11T01:43:55.148Z,70.10
2018-07-11T01:46:23.286Z,70.00
2018-07-11T01:48:51.438Z,70.00
2018-07-11T01:51:19.770Z,69.90
2018-07-11T01:53:47.941Z,69.70
2018-07-11T01:56:16.122Z,69.50
2018-07-11T01:58:46.315Z,69.60
2018-07-11T02:01:15.334Z,69.50
2018-07-11T02:03:43.525Z,69.50
2018-07-11T02:06:11.689Z,69.60
2018-07-11T02:08:39.837Z,69.50
2018-07-11T02:11:07.989Z,69.60
2018-07-11T02:13:36.145Z,69.50
2018-07-11T02:16:04.294Z,69.50
2018-07-11T02:18:32.448Z,69.40
2018-07-11T02:21:00.605Z,69.20
2018-07-11T02:23:34.560Z,69.10
2018-07-11T02:26:02.797Z,69.10
2018-07-11T02:28:30.993Z,69.10
2018-07-11T02:30:59.124Z,69.00
2018-07-11T02:33:27.278Z,69.00
2018-07-11T02:35:55.417Z,69.10
2018-07-11T02:38:23.590Z,69.00
2018-07-11T02:40:51.735Z,68.90
2018-07-11T02:43:19.914Z,69.00
2018-07-11T02:45:48.070Z,69.10
2018-07-11T02:48:16.219Z,69.20
2018-07-11T02:50:44.385Z,69.10
2018-07-11T02:53:21.976Z,69.10
2018-07-11T02:55:51.038Z,69.20
2018-07-11T02:58:19.268Z,69.30
2018-07-11T03:00:47.955Z,69.30
2018-07-11T03:03:16.323Z,69.40
2018-07-11T03:05:44.477Z,69.30
2018-07-11T03:08:12.941Z,69.10
2018-07-11T03:10:41.154Z,69.20
2018-07-11T03:15:37.357Z,69.30
2018-07-11T03:18:06.049Z,69.10
2018-07-11T03:20:34.214Z,69.20
2018-07-11T03:23:02.371Z,69.20
2018-07-11T03:25:30.590Z,69.20
2018-07-11T03:27:58.785Z,69.20
2018-07-11T03:30:26.979Z,69.10
2018-07-11T03:32:55.126Z,69.20
2018-07-11T03:35:23.294Z,69.20
2018-07-11T03:37:51.815Z,69.20
2018-07-11T03:40:19.972Z,69.20
2018-07-11T03:42:48.276Z,69.30
2018-07-11T03:45:16.441Z,69.20
2018-07-11T03:47:44.604Z,69.30
2018-07-11T03:50:12.751Z,69.30
2018-07-11T03:52:40.951Z,69.20
2018-07-11T03:55:09.119Z,69.30
2018-07-11T03:57:37.280Z,69.30
2018-07-11T04:00:05.528Z,69.30
2018-07-11T04:02:33.709Z,69.30
2018-07-11T04:05:01.871Z,69.30
2018-07-11T04:07:30.058Z,69.30
2018-07-11T04:09:58.216Z,69.20
2018-07-11T04:12:26.375Z,68.30
2018-07-11T04:14:54.549Z,69.30
2018-07-11T04:17:22.750Z,69.30
2018-07-11T04:19:50.932Z,69.30
2018-07-11T04:22:19.076Z,69.20
2018-07-11T04:24:47.252Z,69.20
2018-07-11T04:27:15.401Z,69.30
2018-07-11T04:29:43.569Z,69.30
2018-07-11T04:32:11.748Z,69.30
2018-07-11T04:34:39.966Z,69.40
2018-07-11T04:37:08.125Z,69.20
2018-07-11T04:39:36.336Z,69.30
2018-07-11T04:42:04.487Z,69.20
2018-07-11T04:44:32.901Z,69.20
2018-07-11T04:47:01.077Z,69.40
2018-07-11T04:49:29.297Z,69.30
2018-07-11T04:51:57.461Z,69.30
2018-07-11T04:54:25.632Z,69.20
2018-07-11T04:56:53.797Z,69.20
2018-07-11T04:59:21.972Z,69.10
2018-07-11T05:01:50.135Z,69.10
2018-07-11T05:04:18.303Z,69.00
2018-07-11T05:06:46.450Z,68.80
2018-07-11T05:09:14.873Z,68.80
2018-07-11T05:11:43.062Z,68.70
2018-07-11T05:14:11.370Z,68.70
2018-07-11T05:16:39.537Z,68.70
2018-07-11T05:19:07.756Z,69.00
2018-07-11T05:21:35.920Z,68.60
2018-07-11T05:24:04.069Z,68.70
2018-07-11T05:26:32.226Z,68.90
2018-07-11T05:29:00.382Z,69.00
2018-07-11T05:31:28.541Z,69.20
2018-07-11T05:33:56.717Z,69.30
2018-07-11T05:36:24.941Z,69.40
2018-07-11T05:38:53.045Z,69.70
2018-07-11T05:41:21.214Z,69.50
2018-07-11T05:43:49.377Z,69.40
2018-07-11T05:46:17.555Z,69.30
2018-07-11T05:48:45.709Z,69.20
2018-07-11T05:51:13.864Z,69.20
2018-07-11T05:53:43.163Z,69.00
2018-07-11T05:56:12.832Z,69.00
2018-07-11T05:58:42.781Z,69.00
2018-07-11T06:01:11.564Z,69.10
2018-07-11T06:03:41.638Z,69.10
2018-07-11T06:06:09.826Z,69.10
2018-07-11T06:08:38.417Z,69.10
2018-07-11T06:11:16.461Z,69.10
2018-07-11T06:13:44.688Z,69.00
2018-07-11T06:16:12.858Z,68.80
2018-07-11T06:18:41.078Z,68.80
2018-07-11T06:21:09.341Z,68.90
2018-07-11T06:23:37.510Z,69.00
2018-07-11T06:26:06.041Z,68.90
2018-07-11T06:28:34.282Z,68.70
2018-07-11T06:31:02.562Z,68.60
2018-07-11T06:33:30.789Z,68.60
2018-07-11T06:35:58.913Z,68.50
2018-07-11T06:38:27.069Z,68.40
2018-07-11T06:40:55.461Z,68.40
2018-07-11T06:43:23.620Z,68.40
2018-07-11T06:45:52.322Z,69.20
2018-07-11T06:48:20.501Z,68.30
2018-07-11T06:50:48.718Z,68.50
2018-07-11T06:53:16.878Z,68.20
2018-07-11T06:55:45.070Z,68.80
2018-07-11T06:58:14.109Z,68.90
2018-07-11T07:00:45.471Z,68.70
2018-07-11T07:03:14.049Z,68.70
2018-07-11T07:05:42.209Z,68.70
2018-07-11T07:08:10.567Z,69.70
2018-07-11T07:10:38.772Z,68.80
2018-07-11T07:13:07.007Z,68.70
2018-07-11T07:15:35.289Z,69.70
2018-07-11T07:18:03.509Z,69.00
2018-07-11T07:20:31.669Z,69.30
2018-07-11T07:23:00.296Z,69.30
2018-07-11T07:25:28.809Z,69.40
2018-07-11T07:27:56.981Z,69.50
2018-07-11T07:30:26.454Z,69.40
2018-07-11T07:32:54.646Z,69.50
2018-07-11T07:35:22.816Z,69.40
2018-07-11T07:37:51.009Z,69.50
2018-07-11T07:40:19.194Z,69.40
2018-07-11T07:42:47.387Z,69.30
2018-07-11T07:45:15.578Z,69.30
2018-07-11T07:47:45.633Z,69.30
2018-07-11T07:50:14.709Z,69.60
2018-07-11T07:52:42.947Z,69.60
2018-07-11T07:55:11.428Z,69.60
2018-07-11T07:57:39.819Z,69.80
2018-07-11T08:00:07.990Z,69.20
2018-07-11T08:02:36.281Z,70.20
2018-07-11T08:05:06.478Z,70.00
2018-07-11T08:07:35.174Z,69.90
2018-07-11T08:10:03.334Z,69.90
2018-07-11T08:12:31.523Z,70.70
2018-07-11T08:14:59.693Z,70.00
2018-07-11T08:17:27.884Z,70.70
2018-07-11T08:19:56.033Z,69.70
2018-07-11T08:23:11.417Z,69.50
2018-07-11T08:25:51.316Z,70.20
2018-07-11T08:28:30.861Z,69.60
2018-07-11T08:31:12.700Z,69.70
2018-07-11T08:37:01.310Z,69.70
2018-07-11T08:39:59.444Z,69.50
2018-07-11T08:43:39.581Z,69.00
2018-07-11T08:46:15.159Z,69.50
2018-07-11T08:51:02.637Z,69.70
2018-07-11T08:55:51.464Z,69.80
2018-07-11T08:58:38.586Z,69.40
2018-07-11T09:03:20.596Z,69.30
2018-07-11T09:06:15.384Z,69.50
2018-07-11T09:08:51.861Z,69.30
2018-07-11T09:11:33.238Z,69.40
2018-07-11T09:16:16.426Z,69.30
2018-07-11T09:18:54.634Z,69.20
2018-07-11T09:21:44.476Z,69.20
2018-07-11T09:24:47.468Z,69.40
2018-07-11T09:27:15.685Z,69.60
2018-07-11T09:29:44.737Z,69.80
2018-07-11T09:32:13.411Z,70.00
2018-07-11T09:34:41.881Z,70.20
2018-07-11T09:37:10.181Z,70.30
2018-07-11T09:39:38.336Z,70.30
2018-07-11T09:42:06.745Z,70.10
2018-07-11T09:44:35.018Z,70.10
2018-07-11T09:47:08.562Z,69.80
2018-07-11T09:49:36.722Z,69.50
2018-07-11T09:52:04.928Z,69.50
2018-07-11T09:54:33.165Z,69.90
2018-07-11T09:57:01.369Z,69.80
2018-07-11T09:59:29.546Z,69.70
2018-07-11T10:01:57.751Z,69.60
2018-07-11T10:04:26.531Z,69.30
2018-07-11T10:06:54.697Z,69.10
2018-07-11T10:09:22.848Z,68.70
2018-07-11T10:11:51.056Z,68.40
2018-07-11T10:14:19.454Z,68.00
2018-07-11T10:16:47.657Z,67.50
2018-07-11T10:19:15.818Z,66.80
2018-07-11T10:21:43.987Z,66.50
2018-07-11T10:24:12.133Z,66.10
2018-07-11T10:26:40.304Z,66.00
2018-07-11T10:29:08.455Z,66.00
2018-07-11T10:31:36.661Z,66.30
2018-07-11T10:34:04.845Z,66.00
2018-07-11T10:36:33.010Z,66.00
2018-07-11T10:39:01.239Z,66.10
2018-07-11T10:41:29.453Z,66.10
2018-07-11T10:43:57.610Z,66.20
2018-07-11T10:46:25.784Z,66.40
2018-07-11T10:48:53.949Z,66.40
2018-07-11T10:51:22.092Z,66.70
2018-07-11T10:53:50.269Z,66.80
2018-07-11T10:56:18.529Z,67.00
2018-07-11T10:58:46.725Z,67.20
2018-07-11T11:01:14.942Z,67.50
2018-07-11T11:03:43.109Z,67.50
2018-07-11T11:06:11.277Z,67.40
2018-07-11T11:08:39.450Z,67.50
2018-07-11T11:11:07.972Z,68.30
2018-07-11T11:13:36.194Z,67.60
2018-07-11T11:16:04.349Z,68.20
2018-07-11T11:18:32.530Z,68.60
2018-07-11T11:21:00.698Z,69.30
2018-07-11T11:23:28.866Z,69.80
2018-07-11T11:25:57.025Z,70.30
2018-07-11T11:28:25.390Z,70.90
2018-07-11T11:30:53.542Z,71.40
2018-07-11T11:33:21.824Z,72.00
2018-07-11T11:35:49.996Z,72.50
2018-07-11T11:38:18.192Z,73.40
2018-07-11T11:40:46.373Z,74.10
2018-07-11T11:43:14.537Z,74.70
2018-07-11T11:45:42.700Z,75.00
2018-07-11T11:48:10.894Z,75.40
2018-07-11T11:50:39.081Z,75.80
2018-07-11T11:53:07.236Z,76.10
2018-07-11T11:55:35.402Z,76.20
2018-07-11T11:58:03.604Z,76.80
2018-07-11T12:00:31.774Z,77.30
2018-07-11T12:02:59.948Z,77.70
2018-07-11T12:05:28.126Z,77.90
2018-07-11T12:07:56.298Z,78.00
2018-07-11T12:10:24.482Z,78.20
2018-07-11T12:12:52.633Z,78.60
2018-07-11T12:15:20.804Z,79.00
2018-07-11T12:17:48.967Z,79.40
2018-07-11T12:20:17.124Z,79.50
2018-07-11T12:22:45.279Z,79.50
2018-07-11T12:25:13.439Z,79.60
2018-07-11T12:27:41.586Z,79.90
2018-07-11T12:30:09.774Z,80.20
2018-07-11T12:32:37.946Z,80.50
2018-07-11T12:35:06.104Z,80.70
2018-07-11T12:37:34.269Z,81.00
2018-07-11T12:40:02.535Z,81.30
2018-07-11T12:42:30.737Z,81.30
2018-07-11T12:44:58.937Z,81.20
2018-07-11T12:47:32.452Z,81.30
2018-07-11T12:50:00.613Z,81.50
2018-07-11T12:52:29.216Z,81.70
2018-07-11T12:54:57.380Z,81.70
2018-07-11T12:57:25.803Z,81.80
2018-07-11T12:59:53.974Z,81.70
2018-07-11T13:02:22.161Z,81.80
2018-07-11T13:04:50.361Z,81.80
2018-07-11T13:07:18.561Z,82.00
2018-07-11T13:09:46.741Z,82.10
2018-07-11T13:12:14.916Z,82.20
2018-07-11T13:14:43.066Z,82.20
2018-07-11T13:17:11.224Z,82.40
2018-07-11T13:19:39.396Z,82.40
2018-07-11T13:22:07.561Z,82.50
2018-07-11T13:24:35.743Z,82.40
2018-07-11T13:27:03.921Z,82.60
2018-07-11T13:29:32.091Z,82.60
2018-07-11T13:32:00.258Z,82.70
2018-07-11T13:34:28.453Z,82.70
2018-07-11T13:36:56.616Z,82.70
2018-07-11T13:39:24.785Z,82.80
2018-07-11T13:41:53.776Z,83.00
2018-07-11T13:44:21.969Z,83.20
2018-07-11T13:46:50.118Z,83.40
2018-07-11T13:49:18.280Z,83.60
2018-07-11T13:54:14.407Z,84.00
2018-07-11T13:56:42.631Z,84.20
2018-07-11T13:59:10.799Z,84.40
2018-07-11T14:01:38.961Z,85.70
2018-07-11T14:04:07.157Z,85.80
2018-07-11T14:06:35.312Z,84.80
2018-07-11T14:09:04.369Z,84.80
2018-07-11T14:11:32.573Z,84.70
2018-07-11T14:14:00.786Z,84.80
2018-07-11T14:16:29.020Z,84.80
2018-07-11T14:18:57.189Z,84.80
2018-07-11T14:21:25.414Z,84.70
2018-07-11T14:23:54.461Z,85.00
2018-07-11T14:26:22.645Z,84.90
2018-07-11T14:28:52.205Z,84.80
2018-07-11T14:31:28.745Z,84.90
2018-07-11T14:33:59.609Z,85.10
2018-07-11T14:36:27.954Z,85.00
2018-07-11T14:38:56.136Z,84.80
2018-07-11T14:41:24.354Z,84.50
2018-07-11T14:43:52.945Z,84.70
2018-07-11T14:46:21.225Z,84.70
2018-07-11T14:48:49.389Z,84.70
2018-07-11T14:51:17.607Z,84.50
2018-07-11T14:53:46.757Z,84.50
2018-07-11T14:56:14.922Z,84.50
2018-07-11T14:58:43.191Z,84.40
2018-07-11T15:01:11.342Z,84.30
2018-07-11T15:06:07.442Z,84.20
2018-07-11T15:08:35.737Z,84.90
2018-07-11T15:11:03.818Z,84.20
2018-07-11T15:13:31.988Z,84.30
2018-07-11T15:16:00.152Z,84.30
2018-07-11T15:18:28.353Z,84.30
2018-07-11T15:20:56.524Z,84.30
2018-07-11T15:23:24.681Z,84.20
2018-07-11T15:25:52.849Z,84.10
2018-07-11T15:28:21.021Z,83.90
2018-07-11T15:30:49.189Z,83.80
2018-07-11T15:33:18.385Z,84.80
2018-07-11T15:35:46.575Z,83.80
2018-07-11T15:38:14.734Z,83.60
2018-07-11T15:40:43.403Z,83.40
2018-07-11T15:43:11.702Z,83.20
2018-07-11T15:45:39.932Z,83.10
2018-07-11T15:48:08.132Z,83.10
2018-07-11T15:50:36.497Z,83.20
2018-07-11T15:53:04.685Z,83.40
2018-07-11T15:55:34.232Z,83.50
2018-07-11T15:58:08.484Z,83.30
2018-07-11T16:00:40.822Z,83.20
2018-07-11T16:03:11.106Z,83.20
2018-07-11T16:05:41.156Z,83.40
2018-07-11T16:08:09.096Z,83.40
2018-07-11T16:10:42.049Z,83.30
2018-07-11T16:13:10.245Z,83.40
2018-07-11T16:15:38.401Z,83.50
2018-07-11T16:18:07.650Z,83.50
2018-07-11T16:20:36.352Z,83.50
2018-07-11T16:23:04.921Z,83.60
2018-07-11T16:25:33.089Z,83.80
2018-07-11T16:28:01.722Z,83.80
2018-07-11T16:30:29.897Z,83.50
2018-07-11T16:32:58.081Z,83.40
2018-07-11T16:35:26.221Z,83.40
2018-07-11T16:37:54.385Z,83.50
2018-07-11T16:40:22.569Z,83.20
2018-07-11T16:42:51.541Z,82.90
2018-07-11T16:45:19.677Z,82.60
2018-07-11T16:47:47.865Z,82.40
2018-07-11T16:50:16.471Z,82.50
2018-07-11T16:52:45.461Z,82.50
2018-07-11T16:55:13.737Z,82.60
2018-07-11T16:57:43.770Z,82.90
2018-07-11T17:00:12.018Z,83.00
2018-07-11T17:02:41.429Z,83.10
2018-07-11T17:05:10.527Z,83.30
2018-07-11T17:07:59.712Z,83.30
2018-07-11T17:10:29.800Z,83.40
2018-07-11T17:13:07.214Z,83.30
2018-07-11T17:15:36.521Z,83.10
2018-07-11T17:18:05.094Z,83.00
2018-07-11T17:20:33.261Z,82.80
2018-07-11T17:23:05.867Z,82.80
2018-07-11T17:25:38.878Z,82.80
2018-07-11T17:28:07.038Z,82.80
2018-07-11T17:30:37.934Z,82.90
2018-07-11T17:33:07.659Z,82.80
2018-07-11T17:35:36.650Z,83.00
2018-07-11T17:38:07.177Z,83.10
2018-07-11T17:40:35.753Z,83.10
2018-07-11T17:43:05.644Z,83.20
2018-07-11T17:45:35.752Z,83.20
2018-07-11T17:49:14.521Z,83.30
2018-07-11T17:51:48.677Z,83.40
2018-07-11T17:54:16.914Z,83.50
2018-07-11T17:56:56.017Z,83.70
2018-07-11T17:59:34.881Z,83.90
2018-07-11T18:02:10.885Z,84.10
2018-07-11T18:05:15.061Z,84.20
2018-07-11T18:07:46.690Z,84.40
2018-07-11T18:10:30.050Z,84.50
2018-07-11T18:13:02.705Z,84.50
2018-07-11T18:15:33.818Z,84.40
2018-07-11T18:18:13.464Z,84.30
2018-07-11T18:21:53.833Z,84.20
2018-07-11T18:24:36.324Z,84.20
2018-07-11T18:27:11.028Z,84.20
2018-07-11T18:30:54.508Z,84.50
2018-07-11T18:33:33.446Z,84.70
2018-07-11T18:38:36.033Z,84.70
2018-07-11T18:41:04.206Z,84.80
2018-07-11T18:44:14.779Z,85.00
2018-07-11T18:46:51.048Z,84.90
2018-07-11T18:52:16.689Z,85.00
2018-07-11T18:54:58.888Z,85.00
2018-07-11T18:57:35.028Z,85.10
2018-07-11T19:00:14.789Z,85.20
2018-07-11T19:02:52.133Z,85.30
2018-07-11T19:05:31.885Z,85.20
2018-07-11T19:08:06.033Z,85.20
2018-07-11T19:10:42.192Z,85.10
2018-07-11T19:13:46.221Z,85.00
2018-07-11T19:16:17.673Z,84.80
2018-07-11T19:18:56.593Z,84.60
2018-07-11T19:21:39.509Z,84.50
2018-07-11T19:24:13.030Z,84.40
2018-07-11T19:26:55.742Z,84.40
2018-07-11T19:30:16.640Z,84.50
2018-07-11T19:32:56.488Z,84.50
2018-07-11T19:35:35.510Z,84.60
2018-07-11T19:38:12.793Z,84.70
2018-07-11T19:40:46.565Z,84.80
2018-07-11T19:44:32.361Z,84.90
2018-07-11T19:47:12.865Z,85.00
2018-07-11T19:50:50.946Z,84.90
2018-07-11T19:53:27.081Z,85.00
2018-07-11T19:56:15.009Z,85.80
2018-07-11T19:58:43.327Z,85.10
2018-07-11T20:01:12.077Z,85.10
2018-07-11T20:03:40.254Z,85.20
2018-07-11T20:06:08.474Z,85.20
2018-07-11T20:08:36.668Z,85.20
2018-07-11T20:11:05.058Z,86.00
2018-07-11T20:13:33.234Z,85.10
2018-07-11T20:16:01.418Z,85.00
2018-07-11T20:18:29.591Z,84.90
2018-07-11T20:20:57.745Z,85.00
2018-07-11T20:23:25.942Z,84.90
2018-07-11T20:25:54.115Z,84.90
2018-07-11T20:28:22.601Z,84.90
2018-07-11T20:30:50.841Z,84.80
2018-07-11T20:33:19.025Z,84.70
2018-07-11T20:35:47.225Z,84.60
2018-07-11T20:38:15.410Z,84.60
2018-07-11T20:40:43.737Z,84.60
2018-07-11T20:43:11.928Z,84.60
2018-07-11T20:45:40.111Z,84.60
2018-07-11T20:48:08.306Z,85.60
2018-07-11T20:50:36.477Z,84.60
2018-07-11T20:53:04.667Z,84.60
2018-07-11T20:55:32.808Z,84.50
2018-07-11T20:58:12.389Z,84.50
2018-07-11T21:00:52.049Z,84.50
2018-07-11T21:03:28.986Z,84.40
2018-07-11T21:08:13.225Z,84.40
2018-07-11T21:10:53.024Z,84.50
2018-07-11T21:13:36.265Z,84.30
2018-07-11T21:16:16.015Z,84.30
2018-07-11T21:19:08.888Z,84.50
2018-07-11T21:21:38.067Z,84.80
2018-07-11T21:24:07.468Z,84.90
2018-07-11T21:26:36.041Z,85.00
2018-07-11T21:29:04.212Z,85.00
2018-07-11T21:31:32.388Z,85.80
2018-07-11T21:34:00.548Z,84.90
2018-07-11T21:36:28.726Z,84.90
2018-07-11T21:38:56.900Z,84.90
2018-07-11T21:41:25.059Z,84.90
2018-07-11T21:43:53.200Z,84.80
2018-07-11T21:46:21.536Z,84.80
2018-07-11T21:48:49.711Z,84.80
2018-07-11T21:51:17.872Z,84.90
2018-07-11T21:53:46.033Z,85.80
2018-07-11T21:56:14.228Z,85.00
2018-07-11T21:58:42.381Z,85.00
2018-07-11T22:01:11.723Z,85.00
2018-07-11T22:03:39.874Z,85.10
2018-07-11T22:06:08.192Z,85.10
2018-07-11T22:08:36.432Z,85.20
2018-07-11T22:11:04.618Z,86.00
2018-07-11T22:13:32.786Z,85.10
2018-07-11T22:16:00.961Z,85.00
2018-07-11T22:18:43.673Z,84.90
2018-07-11T22:21:11.748Z,84.80
2018-07-11T22:23:39.197Z,84.80
2018-07-11T22:26:06.393Z,84.80
2018-07-11T22:28:33.609Z,85.50
2018-07-11T22:31:00.802Z,84.70
2018-07-11T22:33:27.992Z,84.70
2018-07-11T22:35:55.181Z,84.70
2018-07-11T22:38:22.369Z,84.60
2018-07-11T22:40:49.772Z,84.40
2018-07-11T22:43:16.957Z,84.40
2018-07-11T22:45:44.152Z,84.40
2018-07-11T22:48:11.333Z,84.30
2018-07-11T22:50:38.524Z,84.10
2018-07-11T22:53:05.712Z,84.00
2018-07-11T22:55:32.898Z,84.00
2018-07-11T22:58:00.090Z,84.00
2018-07-11T23:00:27.274Z,84.00
2018-07-11T23:02:54.475Z,84.00
2018-07-11T23:05:21.648Z,83.90
2018-07-11T23:07:48.841Z,83.90
2018-07-11T23:10:16.029Z,83.80
2018-07-11T23:12:43.212Z,83.80
2018-07-11T23:15:10.388Z,83.80
2018-07-11T23:17:37.582Z,83.70
2018-07-11T23:20:04.772Z,83.70
2018-07-11T23:22:31.969Z,83.70
2018-07-11T23:24:59.149Z,83.70
2018-07-11T23:27:26.337Z,83.70
2018-07-11T23:29:53.634Z,83.80
2018-07-11T23:32:20.818Z,83.80
2018-07-11T23:34:47.993Z,83.70
2018-07-11T23:37:15.196Z,83.40
2018-07-11T23:39:42.381Z,83.30
2018-07-11T23:42:09.586Z,83.40
2018-07-11T23:44:36.761Z,84.10
2018-07-11T23:47:03.954Z,83.30
2018-07-11T23:49:31.157Z,83.30
2018-07-11T23:51:58.342Z,83.50
2018-07-11T23:54:25.538Z,83.50
2018-07-11T23:56:52.710Z,83.70
2018-07-11T23:59:19.896Z,83.50
